^^
Station Historical Data
Daily Summary for April 23, 2017 Units:  English    Metric   Both
« Previous Day
Next Day »
Daily Weekly Monthly Yearly Custom
  High: Low: Average:
Temperature: 66.2 °F 42.9 °F 52.2 °F
Dew Point: 42.9 °F 34.6 °F 39.2 °F
Humidity: 83% 32% 63%
Wind Speed: 7.0mph 0.0mph 1.3mph
Wind Gust: 15.0mph - -
Wind- - West
Pressure: 30.15 in 30.03 in -
Precipitation: 0.00 in    
Historical Graphs
 
 
Tabular Data for April 23, 2017
Time Temperature Dew Point Pressure Wind Wind Speed Wind Gust Humidity Rainfall Rate (Hourly) Conditions
00:00 47.9 °F 40.0 °F 30.03 in NNW 1.0 mph 7.0 mph 74% 0.00 in RA
00:15 47.8 °F 39.9 °F 30.04 in North 1.0 mph 8.0 mph 74% 0.00 in CLR
00:30 47.4 °F 39.9 °F 30.05 in NNW 2.0 mph 5.0 mph 75% 0.00 in CLR
00:45 47.1 °F 39.6 °F 30.04 in Calm   6.0 mph 75% 0.00 in CLR
01:00 46.6 °F 39.4 °F 30.05 in North 1.0 mph 7.0 mph 76% 0.00 in CLR
02:15 45.1 °F 39.0 °F 30.04 in Calm   4.0 mph 79% 0.00 in CLR
02:30 44.7 °F 38.9 °F 30.04 in Calm   3.0 mph 80% 0.00 in CLR
02:45 44.3 °F 38.8 °F 30.05 in NNW 1.0 mph 5.0 mph 81% 0.00 in CLR
03:00 44.3 °F 38.8 °F 30.05 in North 1.0 mph 3.0 mph 81% 0.00 in CLR
03:15 44.5 °F 38.7 °F 30.06 in NNW 1.0 mph 5.0 mph 80% 0.00 in CLR
03:30 44.5 °F 38.1 °F 30.06 in NW 1.0 mph 5.0 mph 78% 0.00 in CLR
03:45 44.7 °F 37.6 °F 30.05 in North 1.0 mph 6.0 mph 76% 0.00 in CLR
04:00 44.7 °F 37.2 °F 30.06 in NW 3.0 mph 8.0 mph 75% 0.00 in CLR
04:15 44.7 °F 36.9 °F 30.07 in NW 1.0 mph 7.0 mph 74% 0.00 in CLR
04:30 44.5 °F 36.7 °F 30.06 in NNW 2.0 mph 8.0 mph 74% 0.00 in CLR
04:45 44.3 °F 36.5 °F 30.07 in NW 2.0 mph 7.0 mph 74% 0.00 in CLR
05:00 44.0 °F 36.6 °F 30.07 in NNW 2.0 mph 8.0 mph 75% 0.00 in CLR
05:15 43.7 °F 36.6 °F 30.07 in NNW 2.0 mph 7.0 mph 76% 0.00 in CLR
05:30 43.5 °F 36.4 °F 30.07 in NW 2.0 mph 8.0 mph 76% 0.00 in CLR
05:45 43.2 °F 36.5 °F 30.08 in Calm   8.0 mph 77% 0.00 in CLR
06:00 42.9 °F 36.2 °F 30.09 in NW 1.0 mph 6.0 mph 77% 0.00 in CLR
06:15 43.0 °F 36.2 °F 30.09 in Calm   7.0 mph 77% 0.00 in CLR
06:30 43.1 °F 36.4 °F 30.10 in NNW 2.0 mph 8.0 mph 77% 0.00 in CLR
06:45 43.3 °F 36.6 °F 30.10 in North 2.0 mph 7.0 mph 77% 0.00 in CLR
07:00 43.6 °F 36.5 °F 30.11 in North 3.0 mph 8.0 mph 76% 0.00 in CLR
07:15 44.0 °F 36.6 °F 30.12 in North 1.0 mph 9.0 mph 75% 0.00 in CLR
07:30 44.4 °F 37.0 °F 30.13 in North 1.0 mph 8.0 mph 75% 0.00 in CLR
07:45 45.2 °F 37.1 °F 30.13 in NW 1.0 mph 7.0 mph 73% 0.00 in CLR
08:00 45.8 °F 37.3 °F 30.14 in NNW 1.0 mph 8.0 mph 72% 0.00 in CLR
08:15 46.7 °F 37.4 °F 30.14 in NNW 3.0 mph 6.0 mph 70% 0.00 in CLR
08:30 47.5 °F 38.6 °F 30.15 in Calm   9.0 mph 71% 0.00 in CLR
08:45 48.0 °F 40.1 °F 30.15 in Calm   5.0 mph 74% 0.00 in CLR
09:00 48.4 °F 40.1 °F 30.15 in NW 1.0 mph 7.0 mph 73% 0.00 in CLR
09:15 49.0 °F 39.3 °F 30.15 in WNW 1.0 mph 5.0 mph 69% 0.00 in CLR
09:30 49.7 °F 39.1 °F 30.15 in Calm   6.0 mph 67% 0.00 in CLR
09:45 50.3 °F 39.0 °F 30.15 in NW 2.0 mph 7.0 mph 65% 0.00 in CLR
10:00 50.4 °F 38.7 °F 30.15 in NNW 3.0 mph 8.0 mph 64% 0.00 in CLR
10:15 50.9 °F 38.3 °F 30.15 in NW 2.0 mph 8.0 mph 62% 0.00 in CLR
10:30 52.5 °F 39.0 °F 30.14 in North 2.0 mph 8.0 mph 60% 0.00 in CLR
10:45 53.3 °F 39.3 °F 30.15 in NW 2.0 mph 5.0 mph 59% 0.00 in CLR
11:00 52.9 °F 38.1 °F 30.15 in WNW 5.0 mph 9.0 mph 57% 0.00 in CLR
11:15 53.7 °F 39.7 °F 30.15 in NW 1.0 mph 7.0 mph 59% 0.00 in CLR
11:30 54.1 °F 38.3 °F 30.15 in NNE 3.0 mph 7.0 mph 55% 0.00 in CLR
11:45 54.9 °F 39.5 °F 30.14 in West 1.0 mph 7.0 mph 56% 0.00 in CLR
12:00 55.4 °F 38.1 °F 30.14 in NW 3.0 mph 8.0 mph 52% 0.00 in CLR
12:15 56.5 °F 38.1 °F 30.13 in West 3.0 mph 8.0 mph 50% 0.00 in CLR
12:30 56.5 °F 38.1 °F 30.13 in NW 3.0 mph 7.0 mph 50% 0.00 in CLR
12:45 57.6 °F 39.1 °F 30.14 in SE 1.0 mph 6.0 mph 50% 0.00 in CLR
13:00 58.0 °F 38.4 °F 30.13 in SW 1.0 mph 8.0 mph 48% 0.00 in CLR
13:15 58.2 °F 39.1 °F 30.13 in Calm   8.0 mph 49% 0.00 in CLR
13:30 59.0 °F 38.2 °F 30.12 in SSW 1.0 mph 6.0 mph 46% 0.00 in CLR
13:45 59.7 °F 38.9 °F 30.12 in WSW 2.0 mph 6.0 mph 46% 0.00 in CLR
14:00 60.4 °F 38.4 °F 30.11 in West 1.0 mph 8.0 mph 44% 0.00 in CLR
14:15 61.7 °F 38.9 °F 30.10 in NW 2.0 mph 6.0 mph 43% 0.00 in CLR
14:30 61.4 °F 38.1 °F 30.09 in NNW 3.0 mph 6.0 mph 42% 0.00 in CLR
14:45 62.4 °F 37.7 °F 30.09 in NE 1.0 mph 5.0 mph 40% 0.00 in CLR
15:00 62.8 °F 37.4 °F 30.08 in North 1.0 mph 5.0 mph 39% 0.00 in CLR
15:15 63.0 °F 37.6 °F 30.08 in SW 3.0 mph 7.0 mph 39% 0.00 in CLR
15:30 63.4 °F 37.3 °F 30.08 in WSW 2.0 mph 6.0 mph 38% 0.00 in CLR
15:45 63.5 °F 36.7 °F 30.07 in WSW 2.0 mph 6.0 mph 37% 0.00 in CLR
16:00 64.2 °F 35.2 °F 30.07 in WSW 2.0 mph 6.0 mph 34% 0.00 in CLR
16:15 65.2 °F 34.6 °F 30.07 in SSW 1.0 mph 5.0 mph 32% 0.00 in CLR
16:30 65.4 °F 35.5 °F 30.07 in SW 2.0 mph 5.0 mph 33% 0.00 in CLR
16:45 65.2 °F 35.4 °F 30.07 in Calm   6.0 mph 33% 0.00 in CLR
17:00 66.2 °F 40.5 °F 30.07 in Calm   6.0 mph 39% 0.00 in CLR
17:15 65.4 °F 41.7 °F 30.07 in SSW 2.0 mph 10.0 mph 42% 0.00 in CLR
17:30 64.5 °F 40.2 °F 30.08 in SW 7.0 mph 15.0 mph 41% 0.00 in CLR
17:45 64.0 °F 41.6 °F 30.07 in SSW 1.0 mph 10.0 mph 44% 0.00 in CLR
18:00 63.1 °F 41.4 °F 30.08 in SSW 1.0 mph 12.0 mph 45% 0.00 in CLR
18:15 62.4 °F 41.4 °F 30.08 in South 3.0 mph 9.0 mph 46% 0.00 in CLR
18:30 61.4 °F 42.1 °F 30.08 in South 2.0 mph 9.0 mph 49% 0.00 in CLR
18:45 60.5 °F 42.3 °F 30.08 in SSW 3.0 mph 8.0 mph 51% 0.00 in CLR
19:00 59.1 °F 42.9 °F 30.09 in SSW 2.0 mph 7.0 mph 55% 0.00 in CLR
19:15 57.4 °F 42.8 °F 30.09 in South 1.0 mph 6.0 mph 58% 0.00 in CLR
19:30 55.7 °F 42.4 °F 30.09 in South 2.0 mph 4.0 mph 61% 0.00 in CLR
19:45 54.3 °F 42.4 °F 30.10 in Calm   6.0 mph 64% 0.00 in CLR
20:00 53.1 °F 42.0 °F 30.11 in Calm   5.0 mph 66% 0.00 in CLR
20:15 52.1 °F 42.3 °F 30.11 in Calm   4.0 mph 69% 0.00 in CLR
20:30 51.3 °F 42.2 °F 30.11 in Calm   4.0 mph 71% 0.00 in CLR
20:45 50.6 °F 42.3 °F 30.12 in Calm   5.0 mph 73% 0.00 in CLR
21:00 50.1 °F 42.5 °F 30.12 in Calm   3.0 mph 75% 0.00 in CLR
21:15 49.6 °F 42.7 °F 30.13 in Calm   2.0 mph 77% 0.00 in CLR
21:30 49.2 °F 42.6 °F 30.13 in Calm   3.0 mph 78% 0.00 in CLR
22:00 48.5 °F 42.3 °F 30.14 in Calm   1.0 mph 79% 0.00 in CLR
22:15 48.1 °F 42.2 °F 30.14 in Calm   1.0 mph 80% 0.00 in CLR
22:30 47.8 °F 42.2 °F 30.14 in Calm   1.0 mph 81% 0.00 in CLR
22:45 47.3 °F 42.1 °F 30.14 in Calm     82% 0.00 in CLR
23:00 47.2 °F 42.3 °F 30.14 in Calm   1.0 mph 83% 0.00 in CLR
23:15 47.2 °F 42.3 °F 30.14 in Calm   1.0 mph 83% 0.00 in CLR
23:30 47.2 °F 42.3 °F 30.14 in Calm   2.0 mph 83% 0.00 in CLR
23:45 46.8 °F 41.9 °F 30.14 in Calm     83% 0.00 in CLR
TarryTown NY Weather
Compliments of Weather Underground - 1.5 mb